ENSH/SVJ METAR and TAF weather

Enter ICAO airport designator
Station Type Date Time Source
ENSH METAR 2019/10/21 19:50 UTC NOAA

ENSH 211950Z 14013KT 9999 -SHRA FEW010 BKN015 04/02 Q1002 RMK WIND 150FT 08009KT 050V110


Station Type Date Time Source
ENSH Decoded METAR 2019/10/21 19:50 UTC NOAA

Svolvaer / Helle, Norway (ENSH) 68-15N 014-40E 9M
Oct 21, 2019 - 03:50 PM EDT / 2019.10.21 1950 UTC
Wind: from the SE (140 degrees) at 15 MPH (13 KT):0
Visibility: greater than 7 mile(s):0
Sky conditions: mostly cloudy
Weather: light rain showers
Temperature: 39 F (4 C)
Dew Point: 35 F (2 C)
Relative Humidity: 86%
Pressure (altimeter): 29.59 in. Hg (1002 hPa)
ob: ENSH 211950Z 14013KT 9999 -SHRA FEW010 BKN015 04/02 Q1002 RMK WIND 150FT 08009KT 050V110
cycle: 20

Station Type Date Time Source
ENSH TAF UTC NOAA

Error!

Example: see airport list